Time;durP1;ratioP1;P1;durP2;ratioP2;P2;SDS_P1;SDS_P2;PMS_P1;PMS_P2;Temp;Humidity;BMP_temperature;BMP_pressure;BME280_temperature;BME280_humidity;BME280_pressure;Samples;Min_cycle;Max_cycle;Signal;HPM_P1;HPM_P2
2023/11/18 00:00:19;;;;;;;28.80;15.60;;;4.20;99.90;;;;;;5030148;28;20428;-67
2023/11/18 00:02:46;;;;;;;26.03;14.60;;;4.30;99.90;;;;;;5043883;28;20432;-68
2023/11/18 00:05:12;;;;;;;23.83;15.47;;;4.30;99.90;;;;;;5030411;28;20483;-67
2023/11/18 00:07:38;;;;;;;26.87;15.90;;;4.30;99.90;;;;;;5043836;28;20494;-68
2023/11/18 00:10:05;;;;;;;24.13;15.90;;;4.30;99.90;;;;;;5030247;28;20469;-68
2023/11/18 00:12:31;;;;;;;26.07;15.50;;;4.20;99.90;;;;;;5030583;28;20460;-68
2023/11/18 00:14:56;;;;;;;26.00;15.00;;;4.20;99.90;;;;;;5033081;28;21176;-68
2023/11/18 00:17:22;;;;;;;31.33;16.00;;;4.20;99.90;;;;;;5029711;28;20193;-68
2023/11/18 00:19:48;;;;;;;28.07;15.97;;;4.20;99.90;;;;;;5031274;28;20185;-68
2023/11/18 00:22:14;;;;;;;28.63;16.10;;;4.20;99.90;;;;;;5030262;28;20615;-67
2023/11/18 00:24:39;;;;;;;23.83;14.37;;;4.20;99.90;;;;;;5045775;28;20489;-68
2023/11/18 00:27:05;;;;;;;26.37;16.17;;;4.20;99.90;;;;;;5030400;28;20185;-67
2023/11/18 00:29:35;;;;;;;25.67;15.60;;;4.20;99.90;;;;;;5046075;28;20591;-67
2023/11/18 00:32:02;;;;;;;26.77;14.50;;;4.20;99.90;;;;;;5036553;28;20433;-68
2023/11/18 00:34:29;;;;;;;24.07;14.90;;;4.10;99.90;;;;;;5034868;28;20912;-67
2023/11/18 00:36:57;;;;;;;24.03;14.87;;;4.20;99.90;;;;;;5029823;28;20452;-68
2023/11/18 00:39:23;;;;;;;23.50;13.53;;;4.20;99.90;;;;;;5029312;28;20440;-67
2023/11/18 00:41:49;;;;;;;25.33;14.77;;;4.20;99.90;;;;;;5030787;28;20441;-67
2023/11/18 00:44:15;;;;;;;23.30;14.83;;;4.30;99.90;;;;;;5029307;28;20487;-67
2023/11/18 00:46:41;;;;;;;27.57;14.80;;;4.30;99.90;;;;;;5030028;28;20188;-67
2023/11/18 00:49:07;;;;;;;25.30;14.17;;;4.30;99.90;;;;;;5028958;28;20327;-67
2023/11/18 00:51:32;;;;;;;24.17;14.97;;;4.40;99.90;;;;;;5029050;28;21034;-68
2023/11/18 00:54:00;;;;;;;25.33;15.10;;;4.40;99.90;;;;;;5030364;28;20467;-67
2023/11/18 00:56:28;;;;;;;22.67;14.37;;;4.50;99.90;;;;;;5028516;28;20181;-67
2023/11/18 00:58:54;;;;;;;23.20;15.20;;;4.50;99.90;;;;;;5029850;28;20424;-68
2023/11/18 01:01:21;;;;;;;23.33;13.50;;;4.50;99.90;;;;;;5028653;28;20502;-67
2023/11/18 01:03:47;;;;;;;22.83;13.90;;;4.50;99.90;;;;;;5029453;28;20533;-68
2023/11/18 01:06:15;;;;;;;22.97;13.10;;;4.50;99.90;;;;;;5029599;28;20726;-68
2023/11/18 01:08:44;;;;;;;20.70;12.90;;;4.50;99.90;;;;;;5029906;28;20486;-68
2023/11/18 01:11:10;;;;;;;20.90;13.67;;;4.40;99.90;;;;;;5029245;28;20493;-67
2023/11/18 01:13:35;;;;;;;23.83;13.97;;;4.40;99.90;;;;;;5029919;28;20436;-67
2023/11/18 01:16:01;;;;;;;18.73;12.87;;;4.40;99.90;;;;;;5043938;28;20923;-68
2023/11/18 01:18:28;;;;;;;23.53;12.20;;;4.30;99.90;;;;;;5029155;28;20192;-67
2023/11/18 01:20:53;;;;;;;20.40;12.77;;;4.40;99.90;;;;;;5034866;28;20781;-68
2023/11/18 01:23:19;;;;;;;23.03;13.37;;;4.50;99.90;;;;;;5028809;28;20442;-68
2023/11/18 01:25:45;;;;;;;21.77;13.40;;;4.50;99.90;;;;;;5029388;28;20435;-68
2023/11/18 01:28:11;;;;;;;20.83;13.30;;;4.50;99.90;;;;;;5029954;28;20482;-67
2023/11/18 01:30:36;;;;;;;20.60;13.00;;;4.50;99.90;;;;;;5029264;28;20258;-67
2023/11/18 01:33:03;;;;;;;18.37;12.30;;;4.50;99.90;;;;;;5027480;28;20272;-68
2023/11/18 01:35:31;;;;;;;18.50;12.07;;;4.50;99.90;;;;;;5028448;28;20763;-67
2023/11/18 01:37:57;;;;;;;18.93;12.67;;;4.50;99.90;;;;;;5029338;28;20464;-68
2023/11/18 01:40:23;;;;;;;19.50;12.03;;;4.50;99.90;;;;;;5028758;28;20441;-68
2023/11/18 01:42:49;;;;;;;20.10;12.50;;;4.60;99.90;;;;;;5028421;28;20432;-68
2023/11/18 01:45:19;;;;;;;16.30;12.23;;;4.60;99.90;;;;;;5028809;28;20429;-67
2023/11/18 01:47:48;;;;;;;17.73;11.37;;;4.50;99.90;;;;;;5028325;28;20453;-67
2023/11/18 01:50:15;;;;;;;15.40;11.50;;;4.50;99.90;;;;;;5029602;28;20503;-67
2023/11/18 01:52:41;;;;;;;17.23;11.77;;;4.60;99.90;;;;;;5028207;28;20446;-67
2023/11/18 01:55:08;;;;;;;21.93;13.20;;;4.50;99.90;;;;;;5028887;28;20778;-67
2023/11/18 01:57:34;;;;;;;15.10;11.23;;;4.50;99.90;;;;;;5028886;28;20440;-68
2023/11/18 02:00:05;;;;;;;17.60;11.10;;;4.50;99.90;;;;;;5028905;28;20421;-68
2023/11/18 02:02:32;;;;;;;19.40;12.13;;;4.50;99.90;;;;;;5028388;28;20437;-68
2023/11/18 02:05:01;;;;;;;15.90;11.40;;;4.40;99.90;;;;;;5028414;28;20547;-68
2023/11/18 02:07:30;;;;;;;18.30;11.40;;;4.40;99.90;;;;;;5028690;28;20509;-68
2023/11/18 02:09:56;;;;;;;19.97;12.00;;;4.40;99.90;;;;;;5030313;28;21063;-68
2023/11/18 02:12:39;;;;;;;18.30;11.70;;;4.40;99.90;;;;;;5032772;28;20435;-67
2023/11/18 02:15:12;;;;;;;17.00;11.03;;;4.30;99.90;;;;;;5032044;28;20186;-68
2023/11/18 02:17:39;;;;;;;17.47;12.23;;;4.20;99.90;;;;;;5032560;28;20506;-67
2023/11/18 02:20:13;;;;;;;15.20;10.93;;;4.30;99.90;;;;;;5032446;28;20436;-68
2023/11/18 02:22:48;;;;;;;16.53;11.03;;;4.20;99.90;;;;;;5032242;28;20985;-68
2023/11/18 02:25:18;;;;;;;18.20;10.87;;;4.20;99.90;;;;;;5032894;28;20845;-67
2023/11/18 02:27:45;;;;;;;15.90;11.60;;;4.30;99.90;;;;;;5031150;28;20519;-67
2023/11/18 02:30:13;;;;;;;16.67;11.57;;;4.30;99.90;;;;;;5032973;28;20467;-67
2023/11/18 02:32:59;;;;;;;16.23;11.03;;;4.30;99.90;;;;;;5030724;28;20434;-68
2023/11/18 02:35:29;;;;;;;18.10;11.13;;;4.30;99.90;;;;;;5032196;28;20460;-67
2023/11/18 02:37:56;;;;;;;16.83;11.40;;;4.40;99.90;;;;;;5032149;28;20933;-67
2023/11/18 02:40:35;;;;;;;15.60;11.37;;;4.40;99.90;;;;;;5032882;28;20451;-67
2023/11/18 02:43:05;;;;;;;17.03;11.37;;;4.40;99.90;;;;;;5032035;28;21447;-68
2023/11/18 02:45:31;;;;;;;14.33;10.73;;;4.50;99.90;;;;;;5031932;28;21235;-68
2023/11/18 02:47:57;;;;;;;12.47;9.60;;;4.50;99.90;;;;;;5031438;28;20451;-68
2023/11/18 02:50:30;;;;;;;14.50;11.60;;;4.50;99.90;;;;;;5031772;28;20473;-67
2023/11/18 02:52:55;;;;;;;16.07;10.73;;;4.50;99.90;;;;;;5031143;28;20499;-68
2023/11/18 02:55:22;;;;;;;17.40;12.90;;;4.50;99.90;;;;;;5032147;28;20425;-68
2023/11/18 02:57:49;;;;;;;17.20;12.43;;;4.50;99.90;;;;;;5031418;28;20259;-68
2023/11/18 03:00:22;;;;;;;18.40;12.07;;;4.60;99.90;;;;;;5046291;28;20779;-67
2023/11/18 03:02:51;;;;;;;14.30;10.10;;;4.50;99.90;;;;;;5030673;28;20429;-68
2023/11/18 03:05:18;;;;;;;16.97;11.83;;;4.50;99.90;;;;;;5031353;28;20444;-68
2023/11/18 03:07:47;;;;;;;18.77;11.30;;;4.50;99.90;;;;;;5031265;28;20429;-67
2023/11/18 03:10:20;;;;;;;20.13;12.23;;;4.40;99.90;;;;;;5031702;28;20463;-67
2023/11/18 03:12:47;;;;;;;16.20;10.93;;;4.50;99.90;;;;;;5031667;28;20510;-67
2023/11/18 03:15:13;;;;;;;15.23;10.80;;;4.60;99.90;;;;;;5031525;28;20998;-68
2023/11/18 03:17:38;;;;;;;17.57;11.57;;;4.60;99.90;;;;;;5037626;28;20423;-68
2023/11/18 03:20:11;;;;;;;18.47;11.37;;;4.80;99.90;;;;;;5031799;28;20214;-68
2023/11/18 03:22:37;;;;;;;16.63;12.07;;;4.80;99.90;;;;;;5030786;28;20452;-68
2023/11/18 03:25:05;;;;;;;17.97;11.60;;;4.70;99.90;;;;;;5031066;28;20428;-68
2023/11/18 03:27:31;;;;;;;17.33;10.63;;;4.80;99.90;;;;;;5031359;28;20194;-68
2023/11/18 03:29:56;;;;;;;19.13;11.03;;;4.80;99.90;;;;;;5032071;28;20469;-68
2023/11/18 03:32:22;;;;;;;16.10;10.30;;;4.70;99.90;;;;;;5030612;28;20181;-68
2023/11/18 03:34:48;;;;;;;18.03;12.97;;;4.70;99.90;;;;;;5030849;28;20327;-68
2023/11/18 03:37:13;;;;;;;15.57;11.00;;;4.70;99.90;;;;;;5031191;28;20195;-68
2023/11/18 03:39:39;;;;;;;17.70;12.10;;;4.70;99.90;;;;;;5031585;28;20198;-68
2023/11/18 03:42:05;;;;;;;16.60;11.13;;;4.70;99.90;;;;;;5030932;28;20206;-67
2023/11/18 03:44:30;;;;;;;13.03;9.83;;;4.80;99.90;;;;;;5031028;28;20182;-68
2023/11/18 03:46:56;;;;;;;16.27;11.40;;;4.80;99.90;;;;;;5030597;28;20182;-67
2023/11/18 03:49:21;;;;;;;16.60;11.40;;;4.80;99.90;;;;;;5032030;28;20276;-67
2023/11/18 03:51:47;;;;;;;14.13;11.10;;;4.80;99.90;;;;;;5031282;28;20803;-68
2023/11/18 03:54:13;;;;;;;16.07;10.90;;;4.80;99.90;;;;;;5030264;28;20887;-67
2023/11/18 03:56:39;;;;;;;17.23;12.53;;;4.70;99.90;;;;;;5031794;28;20425;-68
2023/11/18 03:59:05;;;;;;;16.83;11.80;;;4.80;99.90;;;;;;5030795;28;20282;-67
2023/11/18 04:01:32;;;;;;;17.13;11.00;;;4.70;99.90;;;;;;5030992;28;20204;-68
2023/11/18 04:03:58;;;;;;;18.83;12.27;;;4.70;99.90;;;;;;5030626;28;20277;-68
2023/11/18 04:06:24;;;;;;;19.03;10.90;;;4.70;99.90;;;;;;5031431;28;20421;-68
2023/11/18 04:08:50;;;;;;;15.80;11.23;;;4.70;99.90;;;;;;5031082;28;20464;-68
2023/11/18 04:11:17;;;;;;;16.70;11.00;;;4.70;99.90;;;;;;5030140;28;20468;-68
2023/11/18 04:13:44;;;;;;;15.97;11.60;;;4.60;99.90;;;;;;5030679;28;20489;-68
2023/11/18 04:16:13;;;;;;;15.90;10.70;;;4.60;99.90;;;;;;5030492;28;20523;-68
2023/11/18 04:18:42;;;;;;;20.63;13.10;;;4.70;99.90;;;;;;5030682;28;20444;-67
2023/11/18 04:21:08;;;;;;;19.90;11.87;;;4.70;99.90;;;;;;5030034;28;20432;-68
2023/11/18 04:23:38;;;;;;;15.87;10.70;;;4.80;99.90;;;;;;5030395;28;20862;-68
2023/11/18 04:26:07;;;;;;;15.30;10.97;;;4.90;99.90;;;;;;5030172;28;20428;-68
2023/11/18 04:28:34;;;;;;;14.90;10.17;;;4.90;99.90;;;;;;5031520;28;20699;-68
2023/11/18 04:31:00;;;;;;;14.73;10.77;;;4.90;99.90;;;;;;5029760;28;20472;-68
2023/11/18 04:33:26;;;;;;;13.93;10.53;;;4.90;99.90;;;;;;5030980;28;20422;-68
2023/11/18 04:35:52;;;;;;;15.60;10.77;;;4.90;99.90;;;;;;5030496;28;20466;-68
2023/11/18 04:38:19;;;;;;;13.13;9.80;;;5.00;99.90;;;;;;5029974;28;20831;-68
2023/11/18 04:40:48;;;;;;;15.67;10.30;;;5.00;99.90;;;;;;5030200;28;20440;-68
2023/11/18 04:43:14;;;;;;;15.87;11.60;;;5.00;99.90;;;;;;5029452;28;20432;-68
2023/11/18 04:45:42;;;;;;;13.87;10.00;;;5.00;99.90;;;;;;5030321;28;20523;-68
2023/11/18 04:48:08;;;;;;;13.70;9.83;;;4.90;99.90;;;;;;5029258;28;21063;-67
2023/11/18 04:50:33;;;;;;;15.87;10.60;;;5.00;99.90;;;;;;5031264;28;20460;-68
2023/11/18 04:52:59;;;;;;;14.63;10.53;;;5.00;99.90;;;;;;5029587;28;20526;-68
2023/11/18 04:55:28;;;;;;;15.80;11.50;;;5.00;99.90;;;;;;5029109;28;20706;-68
2023/11/18 04:57:54;;;;;;;15.17;11.07;;;5.10;99.90;;;;;;5030416;28;20810;-68
2023/11/18 05:00:21;;;;;;;14.57;9.90;;;5.00;99.90;;;;;;5029697;28;20424;-68
2023/11/18 05:02:48;;;;;;;15.47;10.83;;;5.00;99.90;;;;;;5029780;28;20430;-68
2023/11/18 05:05:17;;;;;;;18.87;11.40;;;5.00;99.90;;;;;;5028717;28;20429;-68
2023/11/18 05:07:43;;;;;;;14.70;9.83;;;5.10;99.90;;;;;;5030315;28;20539;-68
2023/11/18 05:10:12;;;;;;;14.23;9.83;;;5.10;99.90;;;;;;5029163;28;20467;-67
2023/11/18 05:12:39;;;;;;;14.30;10.70;;;5.00;99.90;;;;;;5029703;28;20446;-67
2023/11/18 05:15:07;;;;;;;13.97;10.53;;;5.10;99.90;;;;;;5029071;28;20474;-68
2023/11/18 05:17:39;;;;;;;14.27;10.20;;;5.00;99.90;;;;;;5030620;28;20778;-67
2023/11/18 05:20:08;;;;;;;13.17;9.90;;;5.00;99.90;;;;;;5029938;28;20441;-68
2023/11/18 05:22:36;;;;;;;14.50;10.60;;;5.00;99.90;;;;;;5029903;28;20428;-68
2023/11/18 05:25:04;;;;;;;14.90;11.33;;;5.00;99.90;;;;;;5029168;28;20432;-68
2023/11/18 05:27:31;;;;;;;15.20;11.37;;;5.00;99.90;;;;;;5029527;28;21322;-68
2023/11/18 05:29:59;;;;;;;14.00;10.67;;;4.90;99.90;;;;;;5029901;28;20487;-68
2023/11/18 05:32:27;;;;;;;13.87;10.47;;;5.00;99.90;;;;;;5027828;28;20854;-68
2023/11/18 05:34:54;;;;;;;16.07;12.00;;;5.00;99.90;;;;;;5029199;28;20424;-68
2023/11/18 05:37:24;;;;;;;15.90;12.13;;;4.90;99.90;;;;;;5029151;28;20550;-68
2023/11/18 05:39:58;;;;;;;14.53;9.70;;;5.00;99.90;;;;;;5029529;28;20425;-68
2023/11/18 05:42:25;;;;;;;17.57;10.90;;;5.00;99.90;;;;;;5029431;28;20439;-68
2023/11/18 05:44:57;;;;;;;19.93;11.47;;;5.00;99.90;;;;;;5032801;28;20435;-68
2023/11/18 05:47:23;;;;;;;15.70;10.40;;;5.00;99.90;;;;;;5036173;28;20478;-68
2023/11/18 05:49:49;;;;;;;15.20;10.13;;;5.00;99.90;;;;;;5035868;28;20460;-68
2023/11/18 05:52:15;;;;;;;13.53;10.53;;;5.10;99.90;;;;;;5036143;28;20500;-68
2023/11/18 05:54:40;;;;;;;15.70;11.13;;;5.00;99.90;;;;;;5035062;28;20173;-68
2023/11/18 05:57:06;;;;;;;15.20;10.90;;;5.10;99.90;;;;;;5035870;28;20697;-67
2023/11/18 05:59:32;;;;;;;15.17;11.10;;;5.20;99.90;;;;;;5035703;28;20185;-67
2023/11/18 06:01:58;;;;;;;13.57;11.20;;;5.20;99.90;;;;;;5035777;28;20483;-68
2023/11/18 06:04:25;;;;;;;15.60;11.10;;;5.30;99.90;;;;;;5035604;28;20903;-67
2023/11/18 06:06:51;;;;;;;14.37;9.97;;;5.40;99.90;;;;;;5036204;28;20182;-68
2023/11/18 06:09:25;;;;;;;17.57;11.77;;;5.40;99.90;;;;;;5036018;28;20954;-68
2023/11/18 06:11:54;;;;;;;16.17;10.57;;;5.40;99.90;;;;;;5036146;28;20467;-68
2023/11/18 06:14:21;;;;;;;16.20;11.53;;;5.40;99.90;;;;;;5034742;28;20425;-68
2023/11/18 06:16:50;;;;;;;18.60;11.37;;;5.40;99.90;;;;;;5035705;28;20435;-68
2023/11/18 06:19:16;;;;;;;15.97;10.60;;;5.40;99.90;;;;;;5036245;28;20452;-68
2023/11/18 06:21:42;;;;;;;14.97;11.30;;;5.40;99.90;;;;;;5035645;28;20451;-68
2023/11/18 06:24:11;;;;;;;14.87;10.73;;;5.40;99.90;;;;;;5034285;28;20969;-68
2023/11/18 06:26:37;;;;;;;17.60;12.20;;;5.50;99.90;;;;;;5035390;28;20193;-68
2023/11/18 06:29:06;;;;;;;14.17;10.37;;;5.50;99.90;;;;;;5035271;28;20432;-68
2023/11/18 06:31:32;;;;;;;14.93;11.60;;;5.60;99.90;;;;;;5033542;28;20506;-68
2023/11/18 06:33:57;;;;;;;17.13;11.30;;;5.60;99.90;;;;;;5035236;28;20790;-68
2023/11/18 06:36:26;;;;;;;15.40;10.97;;;5.60;99.90;;;;;;5035933;28;20250;-68
2023/11/18 06:38:53;;;;;;;15.20;11.27;;;5.70;99.90;;;;;;5035917;28;20242;-68
2023/11/18 06:41:23;;;;;;;16.60;11.47;;;5.70;99.90;;;;;;5036414;28;20930;-68
2023/11/18 06:46:29;;;;;;;13.30;10.50;;;5.70;99.90;;;;;;5035358;28;20424;-68
2023/11/18 06:48:55;;;;;;;16.10;11.70;;;5.70;99.90;;;;;;5035542;28;20444;-68
2023/11/18 06:51:24;;;;;;;17.83;11.40;;;5.60;99.90;;;;;;5035487;28;20476;-67
2023/11/18 06:53:51;;;;;;;17.10;12.63;;;5.70;99.90;;;;;;5034833;28;20970;-67
2023/11/18 06:56:17;;;;;;;16.47;10.77;;;5.60;99.90;;;;;;5047646;28;20432;-68
2023/11/18 06:58:43;;;;;;;14.57;11.10;;;5.60;99.90;;;;;;5032468;28;20432;-68
2023/11/18 07:01:13;;;;;;;16.60;11.03;;;5.60;99.90;;;;;;5031686;28;20438;-68
2023/11/18 07:03:41;;;;;;;16.50;12.37;;;5.70;99.90;;;;;;5032326;28;20530;-68
2023/11/18 07:06:07;;;;;;;16.13;10.67;;;5.60;99.90;;;;;;5032296;28;20495;-68
2023/11/18 07:08:34;;;;;;;15.83;11.63;;;5.70;99.90;;;;;;5032471;28;20486;-68
2023/11/18 07:11:01;;;;;;;15.67;10.93;;;5.70;99.90;;;;;;5031955;28;20477;-68
2023/11/18 07:13:28;;;;;;;14.60;10.03;;;5.70;99.90;;;;;;5031974;28;20437;-68
2023/11/18 07:15:56;;;;;;;15.97;10.87;;;5.70;99.90;;;;;;5031311;28;20453;-68
2023/11/18 07:18:22;;;;;;;16.27;11.27;;;5.60;99.90;;;;;;5032431;28;20424;-68
2023/11/18 07:20:51;;;;;;;14.73;11.23;;;5.70;99.90;;;;;;5031495;28;21000;-69
2023/11/18 07:23:17;;;;;;;14.10;10.80;;;5.80;99.90;;;;;;5032514;28;20440;-68
2023/11/18 07:25:44;;;;;;;15.60;10.90;;;5.70;99.90;;;;;;5030912;28;20791;-68
2023/11/18 07:28:11;;;;;;;17.07;11.70;;;5.70;99.90;;;;;;5031509;28;20498;-68
2023/11/18 07:30:37;;;;;;;12.63;10.20;;;5.60;99.90;;;;;;5030571;28;21022;-68
2023/11/18 07:33:03;;;;;;;17.30;12.10;;;5.70;99.90;;;;;;5029950;28;20815;-68
2023/11/18 07:35:29;;;;;;;13.73;10.20;;;5.70;99.90;;;;;;5031778;28;20435;-68
2023/11/18 07:37:56;;;;;;;14.20;10.53;;;5.70;99.90;;;;;;5031360;28;20535;-68
2023/11/18 07:40:28;;;;;;;15.47;10.40;;;5.70;99.90;;;;;;5031247;28;20926;-68
2023/11/18 07:42:57;;;;;;;14.67;9.27;;;5.80;99.90;;;;;;5030747;28;21188;-68
2023/11/18 07:45:23;;;;;;;13.90;9.60;;;5.80;99.90;;;;;;5035736;28;21207;-67
2023/11/18 07:47:50;;;;;;;16.17;10.80;;;5.90;99.90;;;;;;5030277;28;20508;-68
2023/11/18 07:50:21;;;;;;;15.10;10.47;;;6.00;99.90;;;;;;5031013;28;20508;-68
2023/11/18 07:52:50;;;;;;;14.73;10.37;;;6.10;99.90;;;;;;5031675;28;20463;-67
2023/11/18 07:55:18;;;;;;;15.63;11.20;;;6.20;99.90;;;;;;5032575;28;20446;-68
2023/11/18 07:57:44;;;;;;;13.60;9.83;;;6.30;99.90;;;;;;5032149;28;20436;-68
2023/11/18 08:00:10;;;;;;;13.53;9.10;;;6.30;99.90;;;;;;5032591;28;20432;-67
2023/11/18 08:02:37;;;;;;;13.67;9.93;;;6.40;99.90;;;;;;5031399;28;20742;-67
2023/11/18 08:05:06;;;;;;;14.73;9.37;;;6.40;99.90;;;;;;5029507;28;20493;-68
2023/11/18 08:07:36;;;;;;;14.97;10.30;;;6.50;99.90;;;;;;5031316;28;20523;-68
2023/11/18 08:10:05;;;;;;;13.77;9.77;;;6.40;99.90;;;;;;5029928;28;20468;-68
2023/11/18 08:12:32;;;;;;;12.73;9.80;;;6.40;99.90;;;;;;5031091;28;20426;-68
2023/11/18 08:14:59;;;;;;;15.30;9.90;;;6.50;99.90;;;;;;5030192;28;20429;-68
2023/11/18 08:17:25;;;;;;;15.43;11.20;;;6.50;99.90;;;;;;5031247;28;20432;-68
2023/11/18 08:19:55;;;;;;;14.30;9.33;;;6.50;99.90;;;;;;5031833;28;21422;-68
2023/11/18 08:22:23;;;;;;;11.73;8.10;;;6.60;99.90;;;;;;5031311;28;20461;-68
2023/11/18 08:24:49;;;;;;;13.43;9.30;;;6.60;99.90;;;;;;5029771;28;20444;-68
2023/11/18 08:27:15;;;;;;;12.80;8.87;;;6.60;99.90;;;;;;5029358;28;20457;-68
2023/11/18 08:29:41;;;;;;;13.37;8.47;;;6.60;99.90;;;;;;5030737;28;20527;-68
2023/11/18 08:32:09;;;;;;;12.30;9.00;;;6.70;99.90;;;;;;5028777;28;20193;-68
2023/11/18 08:34:37;;;;;;;13.50;9.63;;;6.80;99.90;;;;;;5030397;28;20451;-68
2023/11/18 08:37:04;;;;;;;12.37;8.67;;;6.80;99.90;;;;;;5029971;28;20440;-68
2023/11/18 08:39:30;;;;;;;14.80;9.60;;;6.80;99.90;;;;;;5053154;28;20432;-68
2023/11/18 08:41:56;;;;;;;14.90;8.10;;;6.80;99.90;;;;;;5030032;28;21130;-68
2023/11/18 08:44:23;;;;;;;13.07;9.07;;;6.80;99.90;;;;;;5030552;28;20417;-68
2023/11/18 08:46:51;;;;;;;11.50;8.97;;;6.80;99.90;;;;;;5030729;28;20737;-68
2023/11/18 08:49:23;;;;;;;11.77;8.80;;;6.80;99.90;;;;;;5030328;28;20445;-68
2023/11/18 08:51:55;;;;;;;13.30;9.63;;;6.90;99.90;;;;;;5030605;28;20472;-68
2023/11/18 08:54:22;;;;;;;12.70;8.73;;;6.90;99.90;;;;;;5030537;28;20955;-67
2023/11/18 08:56:51;;;;;;;10.70;8.50;;;6.90;99.90;;;;;;5030438;28;20475;-68
2023/11/18 08:59:27;;;;;;;16.60;9.50;;;6.90;99.90;;;;;;5030248;28;20437;-69
2023/11/18 09:01:59;;;;;;;12.13;9.00;;;6.90;99.90;;;;;;5029379;28;20818;-68
2023/11/18 09:04:27;;;;;;;10.30;7.93;;;6.90;99.90;;;;;;5030119;28;20435;-68
2023/11/18 09:06:53;;;;;;;15.40;9.33;;;6.90;99.90;;;;;;5029468;28;20437;-68
2023/11/18 09:09:29;;;;;;;12.80;8.27;;;6.90;99.90;;;;;;5030353;28;20468;-68
2023/11/18 09:11:58;;;;;;;14.57;8.97;;;6.90;99.90;;;;;;5030173;28;20544;-68
2023/11/18 09:14:25;;;;;;;11.93;8.47;;;6.90;99.90;;;;;;5029939;28;22925;-68
2023/11/18 09:16:55;;;;;;;11.17;7.50;;;7.00;99.90;;;;;;5029480;28;20432;-68
2023/11/18 09:19:21;;;;;;;11.37;8.57;;;7.00;99.90;;;;;;5029262;28;20426;-68
2023/11/18 09:21:47;;;;;;;10.60;8.13;;;7.00;99.90;;;;;;5029797;28;20515;-68
2023/11/18 09:24:14;;;;;;;13.03;9.03;;;7.00;99.90;;;;;;5028161;28;20436;-68
2023/11/18 09:26:41;;;;;;;11.67;7.80;;;6.90;99.90;;;;;;5030284;28;20433;-68
2023/11/18 09:29:08;;;;;;;11.00;7.73;;;6.90;99.90;;;;;;5029225;28;20428;-68
2023/11/18 09:31:36;;;;;;;9.80;7.60;;;6.90;99.90;;;;;;5028252;28;20469;-68
2023/11/18 09:34:06;;;;;;;12.90;7.37;;;6.90;99.90;;;;;;5028673;28;20803;-68
2023/11/18 09:36:33;;;;;;;11.00;7.63;;;6.90;99.90;;;;;;5029695;28;20512;-68
2023/11/18 09:38:59;;;;;;;8.43;6.77;;;7.00;99.90;;;;;;5029487;28;20436;-68
2023/11/18 09:41:26;;;;;;;10.97;8.07;;;7.00;99.90;;;;;;5030148;28;20444;-68
2023/11/18 09:43:56;;;;;;;10.83;8.07;;;7.00;99.90;;;;;;5028323;28;20448;-68
2023/11/18 09:46:24;;;;;;;12.23;7.90;;;7.00;99.90;;;;;;5029845;28;20434;-68
2023/11/18 09:48:59;;;;;;;11.20;7.97;;;7.00;99.90;;;;;;5029969;28;20520;-69
2023/11/18 09:51:35;;;;;;;12.20;7.80;;;7.00;99.90;;;;;;5029956;28;20467;-68
2023/11/18 09:54:10;;;;;;;8.23;6.50;;;7.00;99.90;;;;;;5029381;28;20439;-68
2023/11/18 09:57:08;;;;;;;10.43;7.50;;;7.00;99.90;;;;;;5028593;28;20439;-69
2023/11/18 10:00:26;;;;;;;11.63;7.97;;;7.10;99.90;;;;;;5029871;28;20440;-68
2023/11/18 10:02:55;;;;;;;11.13;7.03;;;7.00;99.90;;;;;;5027824;28;21052;-68
2023/11/18 10:05:22;;;;;;;10.17;7.07;;;7.10;99.90;;;;;;5025763;28;20441;-68
2023/11/18 10:07:49;;;;;;;9.97;7.00;;;7.10;99.90;;;;;;5042802;28;20455;-68
2023/11/18 10:10:15;;;;;;;11.20;6.83;;;7.10;99.90;;;;;;5028440;28;21072;-68
2023/11/18 10:12:46;;;;;;;8.90;7.10;;;7.20;99.90;;;;;;5027894;28;20539;-68
2023/11/18 10:15:14;;;;;;;11.90;7.50;;;7.20;99.90;;;;;;5028936;28;21279;-68
2023/11/18 10:18:06;;;;;;;8.87;7.43;;;7.20;99.90;;;;;;5028268;28;20440;-67
2023/11/18 10:20:47;;;;;;;10.80;7.30;;;7.20;99.90;;;;;;5030614;28;20467;-68
2023/11/18 10:23:19;;;;;;;7.93;6.60;;;7.30;99.90;;;;;;5029225;28;20468;-68
2023/11/18 10:25:49;;;;;;;10.70;7.23;;;7.30;99.90;;;;;;5028927;28;20429;-67
2023/11/18 10:28:32;;;;;;;8.80;6.60;;;7.30;99.90;;;;;;5028995;28;20440;-67
2023/11/18 10:31:03;;;;;;;57.27;11.20;;;7.30;99.90;;;;;;5032853;28;20487;-68
2023/11/18 10:33:35;;;;;;;56.67;10.73;;;7.30;99.90;;;;;;5031869;28;20535;-67
2023/11/18 10:36:03;;;;;;;10.73;7.40;;;7.30;99.90;;;;;;5033378;28;20953;-68
2023/11/18 10:38:39;;;;;;;10.57;7.07;;;7.40;99.90;;;;;;5033848;28;21177;-68
2023/11/18 10:41:05;;;;;;;9.10;6.90;;;7.40;99.90;;;;;;5034075;28;20466;-68
2023/11/18 10:43:35;;;;;;;8.00;6.30;;;7.50;99.90;;;;;;5031205;28;20436;-68
2023/11/18 10:46:13;;;;;;;9.00;6.60;;;7.50;99.90;;;;;;5033343;28;20460;-69
2023/11/18 10:48:43;;;;;;;11.90;6.83;;;7.50;99.90;;;;;;5032424;28;20538;-69
2023/11/18 10:51:19;;;;;;;8.97;6.30;;;7.60;99.90;;;;;;5032078;28;20498;-68
2023/11/18 10:53:58;;;;;;;10.17;7.40;;;7.60;99.90;;;;;;5030296;28;20448;-68
2023/11/18 10:56:27;;;;;;;7.93;5.30;;;7.60;99.90;;;;;;5027452;28;20440;-68
2023/11/18 10:59:00;;;;;;;8.17;6.10;;;7.60;99.90;;;;;;5032544;28;20424;-68
2023/11/18 11:01:33;;;;;;;10.67;5.87;;;7.70;99.90;;;;;;5032474;28;20431;-68
2023/11/18 11:03:59;;;;;;;8.20;6.57;;;7.70;99.90;;;;;;5031838;28;20425;-68
2023/11/18 11:06:30;;;;;;;7.77;5.83;;;7.70;99.90;;;;;;5031775;28;20492;-68
2023/11/18 11:08:58;;;;;;;7.83;5.40;;;7.70;99.90;;;;;;5032975;28;20494;-69
2023/11/18 11:11:26;;;;;;;7.90;6.30;;;7.70;99.90;;;;;;5032441;28;20597;-68
2023/11/18 11:14:03;;;;;;;7.57;5.90;;;7.70;99.90;;;;;;5031365;28;20413;-68
2023/11/18 11:16:37;;;;;;;9.70;7.47;;;7.80;99.90;;;;;;5032805;28;20486;-68
2023/11/18 11:19:08;;;;;;;10.60;6.50;;;7.80;99.90;;;;;;5032209;28;20439;-69
2023/11/18 11:21:47;;;;;;;7.63;5.90;;;7.80;99.90;;;;;;5031176;28;20428;-68
2023/11/18 11:24:35;;;;;;;8.40;5.90;;;7.80;99.90;;;;;;5030148;28;20505;-69
2023/11/18 11:27:35;;;;;;;8.17;6.10;;;7.80;99.90;;;;;;5031991;28;20428;-69
2023/11/18 11:30:31;;;;;;;8.27;5.83;;;7.90;99.90;;;;;;5033168;28;20421;-69
2023/11/18 11:33:28;;;;;;;9.87;6.03;;;7.90;99.90;;;;;;5030455;28;20432;-68
2023/11/18 11:35:57;;;;;;;9.37;5.80;;;7.90;99.90;;;;;;5031096;28;21724;-69
2023/11/18 11:38:24;;;;;;;8.33;6.40;;;7.90;99.90;;;;;;5032132;28;20480;-68
2023/11/18 11:40:52;;;;;;;8.13;6.43;;;7.90;99.90;;;;;;5030878;28;20507;-69
2023/11/18 11:43:21;;;;;;;7.30;5.30;;;8.00;99.90;;;;;;5030462;28;20524;-68
2023/11/18 11:45:56;;;;;;;7.27;6.07;;;8.00;99.90;;;;;;5030282;28;20899;-69
2023/11/18 11:48:27;;;;;;;7.87;5.63;;;8.00;99.90;;;;;;5031210;28;20862;-68
2023/11/18 11:50:54;;;;;;;7.57;6.00;;;8.10;99.90;;;;;;5028990;28;20530;-68
2023/11/18 11:53:26;;;;;;;7.40;6.20;;;8.10;99.90;;;;;;5030496;28;20432;-68
2023/11/18 11:55:53;;;;;;;7.80;6.20;;;8.10;99.90;;;;;;5029879;28;20443;-68
2023/11/18 11:58:38;;;;;;;8.80;6.40;;;8.10;99.90;;;;;;5029992;28;20851;-68
2023/11/18 12:01:23;;;;;;;7.23;5.70;;;8.10;99.90;;;;;;5030663;28;20484;-68
2023/11/18 12:03:57;;;;;;;8.37;5.77;;;8.10;99.90;;;;;;5029736;28;20431;-69
2023/11/18 12:06:26;;;;;;;9.63;6.00;;;8.10;99.90;;;;;;5046222;28;20831;-68
2023/11/18 12:08:53;;;;;;;8.40;5.87;;;8.10;99.90;;;;;;5052842;28;20810;-68
2023/11/18 12:11:22;;;;;;;11.03;6.17;;;8.10;99.90;;;;;;5030549;28;20464;-68
2023/11/18 12:14:32;;;;;;;8.90;5.73;;;8.10;99.90;;;;;;5035593;28;20424;-68
2023/11/18 12:17:00;;;;;;;8.17;5.33;;;8.10;99.90;;;;;;5031726;28;20440;-68
2023/11/18 12:19:50;;;;;;;7.67;5.83;;;8.10;99.90;;;;;;5029733;28;20430;-69
2023/11/18 12:22:26;;;;;;;9.10;6.50;;;8.10;99.90;;;;;;5029998;28;20485;-68
2023/11/18 12:24:58;;;;;;;7.60;5.93;;;8.20;99.90;;;;;;5035395;28;20500;-68
2023/11/18 12:27:39;;;;;;;8.50;5.57;;;8.20;99.90;;;;;;5031546;28;20428;-69
2023/11/18 12:30:38;;;;;;;10.27;6.17;;;8.20;99.90;;;;;;5029829;28;20494;-68
2023/11/18 12:33:17;;;;;;;7.80;5.60;;;8.20;99.90;;;;;;5028592;28;20474;-69
2023/11/18 12:35:55;;;;;;;7.60;5.77;;;8.20;99.90;;;;;;5028854;28;20520;-68
2023/11/18 12:38:46;;;;;;;6.90;6.10;;;8.20;99.90;;;;;;5029298;28;20783;-68
2023/11/18 12:41:39;;;;;;;7.77;4.70;;;8.20;99.90;;;;;;5028897;28;20464;-68
2023/11/18 12:44:06;;;;;;;9.53;5.90;;;8.20;99.90;;;;;;5027843;28;20518;-68
2023/11/18 12:46:50;;;;;;;8.23;5.60;;;8.20;99.90;;;;;;5030595;28;20431;-68
2023/11/18 12:49:19;;;;;;;7.23;5.10;;;8.20;99.90;;;;;;5029002;28;20521;-68
2023/11/18 12:51:45;;;;;;;11.30;7.00;;;8.10;99.90;;;;;;5028773;28;20816;-68
2023/11/18 12:54:12;;;;;;;8.63;5.47;;;8.10;99.90;;;;;;5028197;28;20445;-68
2023/11/18 12:56:44;;;;;;;8.33;5.97;;;8.10;99.90;;;;;;5029972;28;20432;-69